PWSweather.com
Personal Weather Stations
Station Observations
SOGDENUT
Weatherbearcam, South Ogden, UT 84405

WeatherbearcamSouth Ogden, UT 84405

Lat: 41.1549, Lon: -111.9485

Elevation: 4780

Station Type: Davis Vantage Vue

http://weatherbear.com

Latest ConditionsUpdated 3:52:50 AM MST Wednesday, Dec 12, 2018
Currently Today's Max Today's Min Today's Average
Temperature 26.5°F-3.1°C 27.7°F-2.4°C 26.2°F-3.2°C 27.2°F-2.7°C
Dew Point 23.4°F-4.8°C 24.3°F-4.3°C 22.6°F-5.2°C 23.6°F-4.7°C
Winds 1.4 mph SE2.3 kmh SE 7.0 mph -11.3 kmh - - 2.9 mph 4.7 kmh
Wind Gusts 6.0 mph9.7 kmh 11.0 mph17.7 kmh - -
Humidity 88% 88% 86% 87%
Pressure 29.93 in1013.5 mb 30.09 in1019.0 mb 29.93 in1013.5 mb -
Hour Temp Dew Point Humidity Winds Wind Gusts Pressure Precip Precip Rate Daily Precip Total
03:52 AM 26.5°F-3.1°C 23.4°F-4.8°C 88% 1.4 mph SE2.3 kmh SE 6.0 mph9.7 kmh 29.93 in1013.5 mb 0.00 in0.0 mm 0.00 in0.0 mm 0.00 in0.0 mm
03:47 AM 26.4°F-3.1°C 23.3°F-4.8°C 88% 2.1 mph ENE3.4 kmh ENE 7.0 mph11.3 kmh 29.93 in1013.5 mb 0.00 in0.0 mm 0.00 in0.0 mm 0.00 in0.0 mm
03:42 AM 26.4°F-3.1°C 23.3°F-4.8°C 88% 3.4 mph E5.5 kmh E 7.0 mph11.3 kmh 29.93 in1013.5 mb 0.00 in0.0 mm 0.00 in0.0 mm 0.00 in0.0 mm
03:37 AM 26.6°F-3.0°C 23.2°F-4.9°C 87% 5.0 mph ENE8.0 kmh ENE 7.0 mph11.3 kmh 29.94 in1013.9 mb 0.00 in0.0 mm 0.00 in0.0 mm 0.00 in0.0 mm
03:32 AM 26.8°F-2.9°C 23.4°F-4.8°C 87% 4.7 mph E7.6 kmh E 6.0 mph9.7 kmh 29.95 in1014.2 mb 0.00 in0.0 mm 0.00 in0.0 mm 0.00 in0.0 mm
03:27 AM 26.9°F-2.8°C 23.5°F-4.7°C 87% 3.4 mph E5.5 kmh E 4.0 mph6.4 kmh 29.95 in1014.2 mb 0.00 in0.0 mm 0.00 in0.0 mm 0.00 in0.0 mm
03:22 AM 27.0°F-2.8°C 23.6°F-4.7°C 87% 2.7 mph E4.3 kmh E 4.0 mph6.4 kmh 29.96 in1014.6 mb 0.00 in0.0 mm 0.00 in0.0 mm 0.00 in0.0 mm
03:17 AM 27.2°F-2.7°C 23.8°F-4.6°C 87% 1.8 mph E2.9 kmh E 4.0 mph6.4 kmh 29.96 in1014.6 mb 0.00 in0.0 mm 0.00 in0.0 mm 0.00 in0.0 mm
03:14 AM 27.3°F-2.6°C 23.9°F-4.5°C 87% 2.5 mph E4.0 kmh E 4.0 mph6.4 kmh 29.96 in1014.6 mb 0.00 in0.0 mm 0.00 in0.0 mm 0.00 in0.0 mm
03:09 AM 27.2°F-2.7°C 23.8°F-4.6°C 87% 1.4 mph ENE2.3 kmh ENE 3.0 mph4.8 kmh 29.98 in1015.2 mb 0.00 in0.0 mm 0.00 in0.0 mm 0.00 in0.0 mm
03:04 AM 27.2°F-2.7°C 23.8°F-4.6°C 87% 1.1 mph E1.8 kmh E 3.0 mph4.8 kmh 29.98 in1015.2 mb 0.00 in0.0 mm 0.00 in0.0 mm 0.00 in0.0 mm
02:59 AM 27.2°F-2.7°C 23.5°F-4.7°C 86% 1.0 mph ENE1.6 kmh ENE 4.0 mph6.4 kmh 29.98 in1015.2 mb 0.00 in0.0 mm 0.00 in0.0 mm 0.00 in0.0 mm
02:53 AM 27.3°F-2.6°C 23.9°F-4.5°C 87% 1.3 mph ESE2.1 kmh ESE 5.0 mph8.0 kmh 29.99 in1015.6 mb 0.00 in0.0 mm 0.00 in0.0 mm 0.00 in0.0 mm
02:48 AM 27.2°F-2.7°C 23.8°F-4.6°C 87% 1.0 mph ENE1.6 kmh ENE 5.0 mph8.0 kmh 29.99 in1015.6 mb 0.00 in0.0 mm 0.00 in0.0 mm 0.00 in0.0 mm
02:43 AM 27.1°F-2.7°C 23.7°F-4.6°C 87% 2.8 mph ENE4.5 kmh ENE 5.0 mph8.0 kmh 29.99 in1015.6 mb 0.00 in0.0 mm 0.00 in0.0 mm 0.00 in0.0 mm
02:38 AM 27.1°F-2.7°C 23.7°F-4.6°C 87% 3.2 mph NE5.1 kmh NE 6.0 mph9.7 kmh 29.99 in1015.6 mb 0.00 in0.0 mm 0.00 in0.0 mm 0.00 in0.0 mm
02:33 AM 27.1°F-2.7°C 23.7°F-4.6°C 87% 2.0 mph E3.2 kmh E 6.0 mph9.7 kmh 30.00 in1015.9 mb 0.00 in0.0 mm 0.00 in0.0 mm 0.00 in0.0 mm
02:28 AM 27.0°F-2.8°C 23.6°F-4.7°C 87% 1.2 mph NE1.9 kmh NE 5.0 mph8.0 kmh 30.00 in1015.9 mb 0.00 in0.0 mm 0.00 in0.0 mm 0.00 in0.0 mm
02:23 AM 26.9°F-2.8°C 23.5°F-4.7°C 87% 2.4 mph NE3.9 kmh NE 8.0 mph12.9 kmh 30.00 in1015.9 mb 0.00 in0.0 mm 0.00 in0.0 mm 0.00 in0.0 mm
02:18 AM 26.8°F-2.9°C 23.1°F-4.9°C 86% 1.5 mph ENE2.4 kmh ENE 9.0 mph14.5 kmh 30.00 in1015.9 mb 0.00 in0.0 mm 0.00 in0.0 mm 0.00 in0.0 mm
02:13 AM 26.7°F-2.9°C 23.3°F-4.8°C 87% 4.2 mph ENE6.8 kmh ENE 9.0 mph14.5 kmh 30.00 in1015.9 mb 0.00 in0.0 mm 0.00 in0.0 mm 0.00 in0.0 mm
02:08 AM 26.5°F-3.1°C 23.1°F-4.9°C 87% 2.8 mph ENE4.5 kmh ENE 10.0 mph16.1 kmh 30.00 in1015.9 mb 0.00 in0.0 mm 0.00 in0.0 mm 0.00 in0.0 mm
02:03 AM 26.3°F-3.2°C 22.9°F-5.1°C 87% 6.1 mph NE9.8 kmh NE 10.0 mph16.1 kmh 30.01 in1016.3 mb 0.00 in0.0 mm 0.00 in0.0 mm 0.00 in0.0 mm
01:58 AM 26.2°F-3.2°C 22.6°F-5.2°C 86% 6.9 mph NE11.1 kmh NE 10.0 mph16.1 kmh 30.01 in1016.3 mb 0.00 in0.0 mm 0.00 in0.0 mm 0.00 in0.0 mm
01:53 AM 26.4°F-3.1°C 22.7°F-5.2°C 86% 6.0 mph NE9.7 kmh NE 11.0 mph17.7 kmh 30.01 in1016.3 mb 0.00 in0.0 mm 0.00 in0.0 mm 0.00 in0.0 mm
01:48 AM 26.6°F-3.0°C 23.2°F-4.9°C 87% 7.0 mph ENE11.3 kmh ENE 11.0 mph17.7 kmh 30.01 in1016.3 mb 0.00 in0.0 mm 0.00 in0.0 mm 0.00 in0.0 mm
01:43 AM 26.7°F-2.9°C 23.0°F-5.0°C 86% 4.6 mph ENE7.4 kmh ENE 9.0 mph14.5 kmh 30.01 in1016.3 mb 0.00 in0.0 mm 0.00 in0.0 mm 0.00 in0.0 mm
01:38 AM 27.0°F-2.8°C 23.3°F-4.8°C 86% 6.0 mph NE9.7 kmh NE 9.0 mph14.5 kmh 30.01 in1016.3 mb 0.00 in0.0 mm 0.00 in0.0 mm 0.00 in0.0 mm
01:33 AM 27.3°F-2.6°C 23.6°F-4.7°C 86% 5.6 mph ENE9.0 kmh ENE 10.0 mph16.1 kmh 30.01 in1016.3 mb 0.00 in0.0 mm 0.00 in0.0 mm 0.00 in0.0 mm
01:28 AM 27.5°F-2.5°C 23.8°F-4.6°C 86% 5.2 mph E8.4 kmh E 10.0 mph16.1 kmh 30.01 in1016.3 mb 0.00 in0.0 mm 0.00 in0.0 mm 0.00 in0.0 mm
01:23 AM 27.6°F-2.4°C 23.9°F-4.5°C 86% 5.8 mph E9.3 kmh E 9.0 mph14.5 kmh 30.02 in1016.6 mb 0.00 in0.0 mm 0.00 in0.0 mm 0.00 in0.0 mm
01:18 AM 27.7°F-2.4°C 24.0°F-4.4°C 86% 3.4 mph ENE5.5 kmh ENE 8.0 mph12.9 kmh 30.02 in1016.6 mb 0.00 in0.0 mm 0.00 in0.0 mm 0.00 in0.0 mm
01:13 AM 27.7°F-2.4°C 24.0°F-4.4°C 86% 5.3 mph ENE8.5 kmh ENE 8.0 mph12.9 kmh 30.02 in1016.6 mb 0.00 in0.0 mm 0.00 in0.0 mm 0.00 in0.0 mm
01:08 AM 27.7°F-2.4°C 24.0°F-4.4°C 86% 2.9 mph ENE4.7 kmh ENE 6.0 mph9.7 kmh 30.03 in1016.9 mb 0.00 in0.0 mm 0.00 in0.0 mm 0.00 in0.0 mm
01:03 AM 27.7°F-2.4°C 24.0°F-4.4°C 86% 2.9 mph ENE4.7 kmh ENE 6.0 mph9.7 kmh 30.04 in1017.3 mb 0.00 in0.0 mm 0.00 in0.0 mm 0.00 in0.0 mm
12:58 AM 27.7°F-2.4°C 24.0°F-4.4°C 86% 2.8 mph NE4.5 kmh NE 6.0 mph9.7 kmh 30.05 in1017.6 mb 0.00 in0.0 mm 0.00 in0.0 mm 0.00 in0.0 mm
12:53 AM 27.7°F-2.4°C 24.0°F-4.4°C 86% 3.1 mph ENE5.0 kmh ENE 5.0 mph8.0 kmh 30.05 in1017.6 mb 0.00 in0.0 mm 0.00 in0.0 mm 0.00 in0.0 mm
12:48 AM 27.7°F-2.4°C 24.0°F-4.4°C 86% 2.3 mph ENE3.7 kmh ENE 4.0 mph6.4 kmh 30.06 in1017.9 mb 0.00 in0.0 mm 0.00 in0.0 mm 0.00 in0.0 mm
12:43 AM 27.7°F-2.4°C 24.0°F-4.4°C 86% 1.1 mph NE1.8 kmh NE 4.0 mph6.4 kmh 30.06 in1017.9 mb 0.00 in0.0 mm 0.00 in0.0 mm 0.00 in0.0 mm
12:38 AM 27.7°F-2.4°C 24.0°F-4.4°C 86% 1.1 mph NE1.8 kmh NE 3.0 mph4.8 kmh 30.06 in1017.9 mb 0.00 in0.0 mm 0.00 in0.0 mm 0.00 in0.0 mm
12:33 AM 27.7°F-2.4°C 24.0°F-4.4°C 86% 1.9 mph NE3.1 kmh NE 3.0 mph4.8 kmh 30.07 in1018.3 mb 0.00 in0.0 mm 0.00 in0.0 mm 0.00 in0.0 mm
12:28 AM 27.7°F-2.4°C 24.0°F-4.4°C 86% 1.5 mph NE2.4 kmh NE 3.0 mph4.8 kmh 30.07 in1018.3 mb 0.00 in0.0 mm 0.00 in0.0 mm 0.00 in0.0 mm
12:23 AM 27.7°F-2.4°C 24.0°F-4.4°C 86% 1.1 mph NE1.8 kmh NE 3.0 mph4.8 kmh 30.07 in1018.3 mb 0.00 in0.0 mm 0.00 in0.0 mm 0.00 in0.0 mm
12:19 AM 27.7°F-2.4°C 24.3°F-4.3°C 87% 1.0 mph NW1.6 kmh NW 2.0 mph3.2 kmh 30.08 in1018.6 mb 0.00 in0.0 mm 0.00 in0.0 mm 0.00 in0.0 mm
12:14 AM 27.5°F-2.5°C 23.8°F-4.6°C 86% Calm Calm 2.0 mph3.2 kmh 30.08 in1018.6 mb 0.00 in0.0 mm 0.00 in0.0 mm 0.00 in0.0 mm
12:09 AM 27.4°F-2.6°C 23.7°F-4.6°C 86% 1.0 mph WSW1.6 kmh WSW 2.0 mph3.2 kmh 30.09 in1019.0 mb 0.00 in0.0 mm 0.00 in0.0 mm 0.00 in0.0 mm
12:04 AM 27.3°F-2.6°C 23.6°F-4.7°C 86% 1.0 mph WSW1.6 kmh WSW 2.0 mph3.2 kmh 30.09 in1019.0 mb 0.00 in0.0 mm 0.00 in0.0 mm 0.00 in0.0 mm